sensor_id;sensor_type;location;lat;lon;timestamp;P1;durP1;ratioP1;P2;durP2;ratioP2
24389;SDS011;12510;56.468;-3.004;2023-07-02T00:02:17;4.50;;;1.58;;
24389;SDS011;12510;56.468;-3.004;2023-07-02T00:04:45;4.43;;;1.80;;
24389;SDS011;12510;56.468;-3.004;2023-07-02T00:07:11;2.42;;;1.67;;
24389;SDS011;12510;56.468;-3.004;2023-07-02T00:09:38;2.35;;;1.25;;
24389;SDS011;12510;56.468;-3.004;2023-07-02T00:12:04;3.72;;;1.48;;
24389;SDS011;12510;56.468;-3.004;2023-07-02T00:14:31;2.80;;;1.48;;
24389;SDS011;12510;56.468;-3.004;2023-07-02T00:16:57;2.63;;;1.58;;
24389;SDS011;12510;56.468;-3.004;2023-07-02T00:19:24;3.63;;;3.20;;
24389;SDS011;12510;56.468;-3.004;2023-07-02T00:21:51;3.38;;;1.90;;
24389;SDS011;12510;56.468;-3.004;2023-07-02T00:24:19;5.82;;;1.58;;
24389;SDS011;12510;56.468;-3.004;2023-07-02T00:26:45;2.47;;;1.95;;
24389;SDS011;12510;56.468;-3.004;2023-07-02T00:29:14;3.45;;;1.95;;
24389;SDS011;12510;56.468;-3.004;2023-07-02T00:31:40;3.15;;;1.63;;
24389;SDS011;12510;56.468;-3.004;2023-07-02T00:34:07;6.43;;;5.25;;
24389;SDS011;12510;56.468;-3.004;2023-07-02T00:36:33;2.22;;;1.83;;
24389;SDS011;12510;56.468;-3.004;2023-07-02T00:38:59;3.15;;;1.52;;
24389;SDS011;12510;56.468;-3.004;2023-07-02T00:41:26;2.15;;;1.50;;
24389;SDS011;12510;56.468;-3.004;2023-07-02T00:43:52;5.45;;;2.13;;
24389;SDS011;12510;56.468;-3.004;2023-07-02T00:46:23;4.03;;;1.70;;
24389;SDS011;12510;56.468;-3.004;2023-07-02T00:48:52;3.17;;;1.85;;
24389;SDS011;12510;56.468;-3.004;2023-07-02T00:51:24;2.88;;;1.50;;
24389;SDS011;12510;56.468;-3.004;2023-07-02T00:53:54;3.53;;;3.10;;
24389;SDS011;12510;56.468;-3.004;2023-07-02T00:56:22;4.22;;;2.05;;
24389;SDS011;12510;56.468;-3.004;2023-07-02T00:58:50;5.00;;;1.60;;
24389;SDS011;12510;56.468;-3.004;2023-07-02T01:01:19;3.28;;;2.30;;
24389;SDS011;12510;56.468;-3.004;2023-07-02T01:03:53;6.30;;;4.22;;
24389;SDS011;12510;56.468;-3.004;2023-07-02T01:06:26;7.07;;;3.35;;
24389;SDS011;12510;56.468;-3.004;2023-07-02T01:08:54;3.65;;;1.65;;
24389;SDS011;12510;56.468;-3.004;2023-07-02T01:11:23;4.88;;;2.13;;
24389;SDS011;12510;56.468;-3.004;2023-07-02T01:14:01;2.45;;;1.80;;
24389;SDS011;12510;56.468;-3.004;2023-07-02T01:16:31;3.08;;;1.33;;
24389;SDS011;12510;56.468;-3.004;2023-07-02T01:19:01;3.80;;;3.20;;
24389;SDS011;12510;56.468;-3.004;2023-07-02T01:21:32;3.22;;;2.15;;
24389;SDS011;12510;56.468;-3.004;2023-07-02T01:24:02;2.50;;;1.58;;
24389;SDS011;12510;56.468;-3.004;2023-07-02T01:26:30;5.15;;;2.72;;
24389;SDS011;12510;56.468;-3.004;2023-07-02T01:29:13;4.28;;;2.13;;
24389;SDS011;12510;56.468;-3.004;2023-07-02T01:31:43;5.13;;;3.65;;
24389;SDS011;12510;56.468;-3.004;2023-07-02T01:34:11;3.95;;;1.60;;
24389;SDS011;12510;56.468;-3.004;2023-07-02T01:36:38;3.60;;;3.13;;
24389;SDS011;12510;56.468;-3.004;2023-07-02T01:39:04;3.10;;;2.65;;
24389;SDS011;12510;56.468;-3.004;2023-07-02T01:41:36;2.33;;;1.10;;
24389;SDS011;12510;56.468;-3.004;2023-07-02T01:44:09;4.43;;;3.78;;
24389;SDS011;12510;56.468;-3.004;2023-07-02T01:46:35;5.28;;;2.20;;
24389;SDS011;12510;56.468;-3.004;2023-07-02T01:49:02;4.22;;;1.45;;
24389;SDS011;12510;56.468;-3.004;2023-07-02T01:51:29;2.00;;;1.10;;
24389;SDS011;12510;56.468;-3.004;2023-07-02T01:53:56;2.13;;;1.15;;
24389;SDS011;12510;56.468;-3.004;2023-07-02T01:56:22;5.10;;;1.60;;
24389;SDS011;12510;56.468;-3.004;2023-07-02T01:58:48;5.13;;;1.77;;
24389;SDS011;12510;56.468;-3.004;2023-07-02T02:01:15;2.00;;;1.17;;
24389;SDS011;12510;56.468;-3.004;2023-07-02T02:03:41;3.45;;;1.42;;
24389;SDS011;12510;56.468;-3.004;2023-07-02T02:06:08;2.83;;;1.35;;
24389;SDS011;12510;56.468;-3.004;2023-07-02T02:08:34;3.28;;;1.27;;
24389;SDS011;12510;56.468;-3.004;2023-07-02T02:11:01;2.15;;;1.40;;
24389;SDS011;12510;56.468;-3.004;2023-07-02T02:13:27;4.00;;;2.15;;
24389;SDS011;12510;56.468;-3.004;2023-07-02T02:15:54;3.03;;;2.72;;
24389;SDS011;12510;56.468;-3.004;2023-07-02T02:18:20;5.30;;;1.67;;
24389;SDS011;12510;56.468;-3.004;2023-07-02T02:20:47;1.85;;;0.98;;
24389;SDS011;12510;56.468;-3.004;2023-07-02T02:23:13;4.07;;;3.75;;
24389;SDS011;12510;56.468;-3.004;2023-07-02T02:25:40;3.65;;;2.78;;
24389;SDS011;12510;56.468;-3.004;2023-07-02T02:28:07;3.67;;;1.40;;
24389;SDS011;12510;56.468;-3.004;2023-07-02T02:30:34;1.30;;;1.20;;
24389;SDS011;12510;56.468;-3.004;2023-07-02T02:33:02;3.97;;;2.53;;
24389;SDS011;12510;56.468;-3.004;2023-07-02T02:35:29;2.38;;;1.20;;
24389;SDS011;12510;56.468;-3.004;2023-07-02T02:37:55;1.80;;;0.88;;
24389;SDS011;12510;56.468;-3.004;2023-07-02T02:40:22;1.45;;;1.13;;
24389;SDS011;12510;56.468;-3.004;2023-07-02T02:42:48;2.33;;;1.10;;
24389;SDS011;12510;56.468;-3.004;2023-07-02T02:45:15;7.38;;;5.65;;
24389;SDS011;12510;56.468;-3.004;2023-07-02T02:47:41;4.93;;;1.60;;
24389;SDS011;12510;56.468;-3.004;2023-07-02T02:50:08;2.08;;;1.13;;
24389;SDS011;12510;56.468;-3.004;2023-07-02T02:52:35;2.55;;;1.45;;
24389;SDS011;12510;56.468;-3.004;2023-07-02T02:55:02;3.35;;;1.38;;
24389;SDS011;12510;56.468;-3.004;2023-07-02T02:57:29;4.82;;;4.32;;
24389;SDS011;12510;56.468;-3.004;2023-07-02T02:59:55;5.70;;;2.92;;
24389;SDS011;12510;56.468;-3.004;2023-07-02T03:02:22;1.95;;;1.02;;
24389;SDS011;12510;56.468;-3.004;2023-07-02T03:04:48;3.47;;;1.77;;
24389;SDS011;12510;56.468;-3.004;2023-07-02T03:07:15;4.45;;;1.30;;
24389;SDS011;12510;56.468;-3.004;2023-07-02T03:09:42;3.58;;;1.45;;
24389;SDS011;12510;56.468;-3.004;2023-07-02T03:12:08;2.90;;;1.92;;
24389;SDS011;12510;56.468;-3.004;2023-07-02T03:14:35;4.25;;;1.83;;
24389;SDS011;12510;56.468;-3.004;2023-07-02T03:17:02;3.33;;;1.50;;
24389;SDS011;12510;56.468;-3.004;2023-07-02T03:19:29;2.55;;;1.27;;
24389;SDS011;12510;56.468;-3.004;2023-07-02T03:21:55;3.22;;;1.70;;
24389;SDS011;12510;56.468;-3.004;2023-07-02T03:24:21;3.10;;;2.83;;
24389;SDS011;12510;56.468;-3.004;2023-07-02T03:26:48;8.75;;;3.33;;
24389;SDS011;12510;56.468;-3.004;2023-07-02T03:29:14;5.28;;;2.00;;
24389;SDS011;12510;56.468;-3.004;2023-07-02T03:31:42;5.03;;;2.08;;
24389;SDS011;12510;56.468;-3.004;2023-07-02T03:34:08;2.58;;;1.92;;
24389;SDS011;12510;56.468;-3.004;2023-07-02T03:36:36;3.75;;;1.42;;
24389;SDS011;12510;56.468;-3.004;2023-07-02T03:39:03;2.00;;;1.40;;
24389;SDS011;12510;56.468;-3.004;2023-07-02T03:41:30;8.50;;;7.80;;
24389;SDS011;12510;56.468;-3.004;2023-07-02T03:43:57;6.05;;;5.45;;
24389;SDS011;12510;56.468;-3.004;2023-07-02T03:46:23;3.08;;;1.27;;
24389;SDS011;12510;56.468;-3.004;2023-07-02T03:48:50;4.10;;;1.70;;
24389;SDS011;12510;56.468;-3.004;2023-07-02T03:51:16;2.75;;;1.50;;
24389;SDS011;12510;56.468;-3.004;2023-07-02T03:53:43;2.88;;;1.48;;
24389;SDS011;12510;56.468;-3.004;2023-07-02T03:56:09;4.35;;;2.03;;
24389;SDS011;12510;56.468;-3.004;2023-07-02T03:58:36;4.35;;;1.58;;
24389;SDS011;12510;56.468;-3.004;2023-07-02T04:01:02;4.57;;;1.60;;
24389;SDS011;12510;56.468;-3.004;2023-07-02T04:03:29;1.77;;;1.60;;
24389;SDS011;12510;56.468;-3.004;2023-07-02T04:05:55;2.95;;;1.30;;
24389;SDS011;12510;56.468;-3.004;2023-07-02T04:08:22;2.95;;;2.58;;
24389;SDS011;12510;56.468;-3.004;2023-07-02T04:10:50;2.53;;;1.40;;
24389;SDS011;12510;56.468;-3.004;2023-07-02T04:13:17;3.28;;;1.45;;
24389;SDS011;12510;56.468;-3.004;2023-07-02T04:15:43;5.28;;;1.23;;
24389;SDS011;12510;56.468;-3.004;2023-07-02T04:18:10;4.57;;;2.30;;
24389;SDS011;12510;56.468;-3.004;2023-07-02T04:20:37;4.15;;;1.52;;
24389;SDS011;12510;56.468;-3.004;2023-07-02T04:23:05;2.63;;;1.75;;
24389;SDS011;12510;56.468;-3.004;2023-07-02T04:25:32;8.38;;;7.53;;
24389;SDS011;12510;56.468;-3.004;2023-07-02T04:27:58;3.95;;;3.00;;
24389;SDS011;12510;56.468;-3.004;2023-07-02T04:30:25;4.95;;;2.17;;
24389;SDS011;12510;56.468;-3.004;2023-07-02T04:32:51;3.35;;;1.42;;
24389;SDS011;12510;56.468;-3.004;2023-07-02T04:35:18;3.28;;;2.20;;
24389;SDS011;12510;56.468;-3.004;2023-07-02T04:37:45;5.95;;;1.70;;
24389;SDS011;12510;56.468;-3.004;2023-07-02T04:40:11;3.22;;;1.67;;
24389;SDS011;12510;56.468;-3.004;2023-07-02T04:42:38;4.65;;;1.65;;
24389;SDS011;12510;56.468;-3.004;2023-07-02T04:45:07;4.35;;;2.28;;
24389;SDS011;12510;56.468;-3.004;2023-07-02T04:47:34;4.22;;;1.60;;
24389;SDS011;12510;56.468;-3.004;2023-07-02T04:50:01;6.03;;;1.83;;
24389;SDS011;12510;56.468;-3.004;2023-07-02T04:52:27;3.35;;;1.80;;
24389;SDS011;12510;56.468;-3.004;2023-07-02T04:54:54;6.07;;;2.17;;
24389;SDS011;12510;56.468;-3.004;2023-07-02T04:57:21;3.90;;;2.30;;
24389;SDS011;12510;56.468;-3.004;2023-07-02T04:59:49;5.05;;;1.45;;
24389;SDS011;12510;56.468;-3.004;2023-07-02T05:02:15;3.40;;;1.55;;
24389;SDS011;12510;56.468;-3.004;2023-07-02T05:04:42;5.15;;;2.08;;
24389;SDS011;12510;56.468;-3.004;2023-07-02T05:07:08;2.75;;;1.45;;
24389;SDS011;12510;56.468;-3.004;2023-07-02T05:09:34;7.75;;;2.35;;
24389;SDS011;12510;56.468;-3.004;2023-07-02T05:12:01;4.28;;;1.55;;
24389;SDS011;12510;56.468;-3.004;2023-07-02T05:14:27;5.43;;;2.08;;
24389;SDS011;12510;56.468;-3.004;2023-07-02T05:16:53;4.93;;;1.85;;
24389;SDS011;12510;56.468;-3.004;2023-07-02T05:19:20;3.75;;;1.48;;
24389;SDS011;12510;56.468;-3.004;2023-07-02T05:21:46;4.55;;;1.88;;
24389;SDS011;12510;56.468;-3.004;2023-07-02T05:24:13;3.63;;;2.08;;
24389;SDS011;12510;56.468;-3.004;2023-07-02T05:26:39;3.00;;;1.95;;
24389;SDS011;12510;56.468;-3.004;2023-07-02T05:29:06;4.47;;;3.75;;
24389;SDS011;12510;56.468;-3.004;2023-07-02T05:31:32;4.53;;;1.35;;
24389;SDS011;12510;56.468;-3.004;2023-07-02T05:34:00;3.30;;;1.48;;
24389;SDS011;12510;56.468;-3.004;2023-07-02T05:36:26;2.63;;;1.23;;
24389;SDS011;12510;56.468;-3.004;2023-07-02T05:38:53;3.20;;;1.63;;
24389;SDS011;12510;56.468;-3.004;2023-07-02T05:41:20;3.35;;;2.15;;
24389;SDS011;12510;56.468;-3.004;2023-07-02T05:43:47;2.47;;;1.58;;
24389;SDS011;12510;56.468;-3.004;2023-07-02T05:46:14;3.58;;;1.17;;
24389;SDS011;12510;56.468;-3.004;2023-07-02T05:48:41;4.38;;;2.95;;
24389;SDS011;12510;56.468;-3.004;2023-07-02T05:51:08;3.28;;;1.98;;
24389;SDS011;12510;56.468;-3.004;2023-07-02T05:53:34;6.13;;;5.72;;
24389;SDS011;12510;56.468;-3.004;2023-07-02T05:56:03;4.85;;;1.48;;
24389;SDS011;12510;56.468;-3.004;2023-07-02T05:58:29;2.80;;;1.17;;
24389;SDS011;12510;56.468;-3.004;2023-07-02T06:00:56;4.93;;;1.95;;
24389;SDS011;12510;56.468;-3.004;2023-07-02T06:03:22;2.13;;;1.90;;
24389;SDS011;12510;56.468;-3.004;2023-07-02T06:05:49;3.78;;;3.42;;
24389;SDS011;12510;56.468;-3.004;2023-07-02T06:08:16;5.07;;;1.52;;
24389;SDS011;12510;56.468;-3.004;2023-07-02T06:10:45;3.65;;;1.70;;
24389;SDS011;12510;56.468;-3.004;2023-07-02T06:13:12;3.13;;;1.90;;
24389;SDS011;12510;56.468;-3.004;2023-07-02T06:15:39;3.63;;;1.65;;
24389;SDS011;12510;56.468;-3.004;2023-07-02T06:18:06;2.03;;;1.13;;
24389;SDS011;12510;56.468;-3.004;2023-07-02T06:20:32;4.90;;;4.25;;
24389;SDS011;12510;56.468;-3.004;2023-07-02T06:22:59;4.80;;;4.32;;
24389;SDS011;12510;56.468;-3.004;2023-07-02T06:25:25;2.05;;;0.88;;
24389;SDS011;12510;56.468;-3.004;2023-07-02T06:27:52;4.10;;;3.70;;
24389;SDS011;12510;56.468;-3.004;2023-07-02T06:30:21;3.60;;;3.25;;
24389;SDS011;12510;56.468;-3.004;2023-07-02T06:32:48;4.07;;;1.20;;
24389;SDS011;12510;56.468;-3.004;2023-07-02T06:35:14;4.50;;;4.15;;
24389;SDS011;12510;56.468;-3.004;2023-07-02T06:37:41;5.70;;;5.07;;
24389;SDS011;12510;56.468;-3.004;2023-07-02T06:40:07;16.25;;;15.07;;
24389;SDS011;12510;56.468;-3.004;2023-07-02T06:42:34;5.90;;;5.50;;
24389;SDS011;12510;56.468;-3.004;2023-07-02T06:45:04;8.35;;;7.65;;
24389;SDS011;12510;56.468;-3.004;2023-07-02T06:47:31;17.50;;;16.38;;
24389;SDS011;12510;56.468;-3.004;2023-07-02T06:49:58;9.65;;;9.10;;
24389;SDS011;12510;56.468;-3.004;2023-07-02T06:52:25;6.40;;;5.90;;
24389;SDS011;12510;56.468;-3.004;2023-07-02T06:54:52;27.75;;;26.02;;
24389;SDS011;12510;56.468;-3.004;2023-07-02T06:57:18;19.55;;;18.45;;
24389;SDS011;12510;56.468;-3.004;2023-07-02T06:59:44;16.45;;;15.57;;
24389;SDS011;12510;56.468;-3.004;2023-07-02T07:02:11;10.07;;;9.48;;
24389;SDS011;12510;56.468;-3.004;2023-07-02T07:04:38;10.70;;;9.98;;
24389;SDS011;12510;56.468;-3.004;2023-07-02T07:07:04;19.85;;;18.70;;
24389;SDS011;12510;56.468;-3.004;2023-07-02T07:09:31;18.60;;;17.40;;
24389;SDS011;12510;56.468;-3.004;2023-07-02T07:11:57;10.05;;;9.40;;
24389;SDS011;12510;56.468;-3.004;2023-07-02T07:14:23;14.20;;;13.32;;
24389;SDS011;12510;56.468;-3.004;2023-07-02T07:16:50;19.50;;;18.40;;
24389;SDS011;12510;56.468;-3.004;2023-07-02T07:19:17;19.85;;;18.73;;
24389;SDS011;12510;56.468;-3.004;2023-07-02T07:21:43;10.93;;;10.32;;
24389;SDS011;12510;56.468;-3.004;2023-07-02T07:24:10;19.00;;;17.88;;
24389;SDS011;12510;56.468;-3.004;2023-07-02T07:26:37;29.23;;;27.30;;
24389;SDS011;12510;56.468;-3.004;2023-07-02T07:29:04;18.27;;;17.05;;
24389;SDS011;12510;56.468;-3.004;2023-07-02T07:31:31;14.77;;;13.88;;
24389;SDS011;12510;56.468;-3.004;2023-07-02T07:33:57;23.65;;;22.25;;
24389;SDS011;12510;56.468;-3.004;2023-07-02T07:36:24;11.95;;;11.13;;
24389;SDS011;12510;56.468;-3.004;2023-07-02T07:38:50;13.10;;;12.43;;
24389;SDS011;12510;56.468;-3.004;2023-07-02T07:41:16;20.73;;;19.55;;
24389;SDS011;12510;56.468;-3.004;2023-07-02T07:43:43;19.08;;;17.98;;
24389;SDS011;12510;56.468;-3.004;2023-07-02T07:46:09;13.80;;;12.98;;
24389;SDS011;12510;56.468;-3.004;2023-07-02T07:48:36;36.60;;;34.28;;
24389;SDS011;12510;56.468;-3.004;2023-07-02T07:51:02;18.20;;;17.20;;
24389;SDS011;12510;56.468;-3.004;2023-07-02T07:53:28;12.05;;;11.10;;
24389;SDS011;12510;56.468;-3.004;2023-07-02T07:55:55;24.60;;;23.25;;
24389;SDS011;12510;56.468;-3.004;2023-07-02T07:58:22;9.07;;;8.57;;
24389;SDS011;12510;56.468;-3.004;2023-07-02T08:00:50;22.48;;;21.15;;
24389;SDS011;12510;56.468;-3.004;2023-07-02T08:03:16;17.52;;;16.50;;
24389;SDS011;12510;56.468;-3.004;2023-07-02T08:05:42;12.18;;;11.48;;
24389;SDS011;12510;56.468;-3.004;2023-07-02T08:08:09;17.10;;;15.98;;
24389;SDS011;12510;56.468;-3.004;2023-07-02T08:10:35;10.60;;;9.90;;
24389;SDS011;12510;56.468;-3.004;2023-07-02T08:13:02;12.98;;;12.13;;
24389;SDS011;12510;56.468;-3.004;2023-07-02T08:15:28;21.20;;;20.00;;
24389;SDS011;12510;56.468;-3.004;2023-07-02T08:17:55;21.90;;;20.50;;
24389;SDS011;12510;56.468;-3.004;2023-07-02T08:20:24;17.20;;;16.27;;
24389;SDS011;12510;56.468;-3.004;2023-07-02T08:22:50;16.17;;;15.25;;
24389;SDS011;12510;56.468;-3.004;2023-07-02T08:25:20;25.95;;;24.38;;
24389;SDS011;12510;56.468;-3.004;2023-07-02T08:27:47;9.43;;;8.93;;
24389;SDS011;12510;56.468;-3.004;2023-07-02T08:30:14;23.60;;;22.25;;
24389;SDS011;12510;56.468;-3.004;2023-07-02T08:32:40;30.48;;;28.75;;
24389;SDS011;12510;56.468;-3.004;2023-07-02T08:35:07;25.77;;;24.35;;
24389;SDS011;12510;56.468;-3.004;2023-07-02T08:37:34;21.98;;;20.27;;
24389;SDS011;12510;56.468;-3.004;2023-07-02T08:40:00;13.05;;;12.35;;
24389;SDS011;12510;56.468;-3.004;2023-07-02T08:42:27;16.58;;;15.65;;
24389;SDS011;12510;56.468;-3.004;2023-07-02T08:44:55;31.77;;;29.88;;
24389;SDS011;12510;56.468;-3.004;2023-07-02T08:47:23;9.13;;;8.60;;
24389;SDS011;12510;56.468;-3.004;2023-07-02T08:49:50;12.15;;;11.30;;
24389;SDS011;12510;56.468;-3.004;2023-07-02T08:52:16;9.50;;;8.93;;
24389;SDS011;12510;56.468;-3.004;2023-07-02T08:54:42;7.65;;;7.25;;
24389;SDS011;12510;56.468;-3.004;2023-07-02T08:57:09;9.65;;;9.18;;
24389;SDS011;12510;56.468;-3.004;2023-07-02T08:59:36;11.50;;;10.60;;
24389;SDS011;12510;56.468;-3.004;2023-07-02T09:02:02;8.20;;;7.75;;
24389;SDS011;12510;56.468;-3.004;2023-07-02T09:04:30;13.93;;;13.15;;
24389;SDS011;12510;56.468;-3.004;2023-07-02T09:07:06;11.40;;;10.60;;
24389;SDS011;12510;56.468;-3.004;2023-07-02T09:09:34;5.88;;;5.38;;
24389;SDS011;12510;56.468;-3.004;2023-07-02T09:15:02;9.05;;;8.27;;
24389;SDS011;12510;56.468;-3.004;2023-07-02T09:17:33;9.80;;;9.13;;
24389;SDS011;12510;56.468;-3.004;2023-07-02T09:20:01;6.15;;;5.65;;
24389;SDS011;12510;56.468;-3.004;2023-07-02T09:22:31;8.93;;;8.32;;
24389;SDS011;12510;56.468;-3.004;2023-07-02T09:24:58;14.15;;;13.25;;
24389;SDS011;12510;56.468;-3.004;2023-07-02T09:27:35;11.80;;;11.23;;
24389;SDS011;12510;56.468;-3.004;2023-07-02T09:30:07;8.77;;;8.18;;
24389;SDS011;12510;56.468;-3.004;2023-07-02T09:32:38;8.25;;;7.88;;
24389;SDS011;12510;56.468;-3.004;2023-07-02T09:35:06;9.43;;;9.02;;
24389;SDS011;12510;56.468;-3.004;2023-07-02T09:37:32;12.05;;;11.43;;
24389;SDS011;12510;56.468;-3.004;2023-07-02T09:39:59;9.73;;;8.93;;
24389;SDS011;12510;56.468;-3.004;2023-07-02T09:42:27;11.20;;;10.50;;
24389;SDS011;12510;56.468;-3.004;2023-07-02T09:44:55;13.57;;;12.68;;
24389;SDS011;12510;56.468;-3.004;2023-07-02T09:47:24;13.50;;;12.70;;
24389;SDS011;12510;56.468;-3.004;2023-07-02T09:49:53;13.45;;;12.68;;
24389;SDS011;12510;56.468;-3.004;2023-07-02T09:52:21;6.40;;;5.93;;
24389;SDS011;12510;56.468;-3.004;2023-07-02T09:54:48;22.77;;;21.25;;
24389;SDS011;12510;56.468;-3.004;2023-07-02T09:57:14;7.18;;;6.82;;
24389;SDS011;12510;56.468;-3.004;2023-07-02T09:59:41;10.63;;;10.02;;
24389;SDS011;12510;56.468;-3.004;2023-07-02T10:02:09;10.10;;;9.50;;
24389;SDS011;12510;56.468;-3.004;2023-07-02T10:04:39;7.18;;;6.78;;
24389;SDS011;12510;56.468;-3.004;2023-07-02T10:07:10;9.77;;;9.15;;
24389;SDS011;12510;56.468;-3.004;2023-07-02T10:09:38;29.38;;;27.60;;
24389;SDS011;12510;56.468;-3.004;2023-07-02T10:12:18;10.35;;;9.80;;
24389;SDS011;12510;56.468;-3.004;2023-07-02T10:14:46;12.57;;;11.88;;
24389;SDS011;12510;56.468;-3.004;2023-07-02T10:17:26;8.77;;;8.27;;
24389;SDS011;12510;56.468;-3.004;2023-07-02T10:20:00;14.13;;;13.23;;
24389;SDS011;12510;56.468;-3.004;2023-07-02T10:22:41;13.80;;;12.98;;
24389;SDS011;12510;56.468;-3.004;2023-07-02T10:25:10;9.47;;;8.93;;
24389;SDS011;12510;56.468;-3.004;2023-07-02T10:27:40;15.63;;;14.48;;
24389;SDS011;12510;56.468;-3.004;2023-07-02T10:30:09;8.43;;;7.50;;
24389;SDS011;12510;56.468;-3.004;2023-07-02T10:32:36;14.57;;;13.48;;
24389;SDS011;12510;56.468;-3.004;2023-07-02T10:35:14;10.02;;;9.32;;
24389;SDS011;12510;56.468;-3.004;2023-07-02T10:37:41;9.05;;;8.55;;
24389;SDS011;12510;56.468;-3.004;2023-07-02T10:40:09;19.55;;;17.85;;
24389;SDS011;12510;56.468;-3.004;2023-07-02T10:42:46;11.63;;;10.90;;
24389;SDS011;12510;56.468;-3.004;2023-07-02T10:45:12;10.70;;;10.02;;
24389;SDS011;12510;56.468;-3.004;2023-07-02T10:47:40;18.02;;;16.83;;
24389;SDS011;12510;56.468;-3.004;2023-07-02T10:53:00;18.50;;;17.35;;
24389;SDS011;12510;56.468;-3.004;2023-07-02T10:55:26;18.35;;;17.20;;
24389;SDS011;12510;56.468;-3.004;2023-07-02T10:58:06;9.77;;;9.18;;
24389;SDS011;12510;56.468;-3.004;2023-07-02T11:00:46;10.50;;;10.00;;
24389;SDS011;12510;56.468;-3.004;2023-07-02T11:03:22;9.80;;;9.20;;
24389;SDS011;12510;56.468;-3.004;2023-07-02T11:05:50;22.92;;;20.67;;
24389;SDS011;12510;56.468;-3.004;2023-07-02T11:08:18;7.07;;;6.68;;
24389;SDS011;12510;56.468;-3.004;2023-07-02T11:10:47;14.15;;;13.13;;
24389;SDS011;12510;56.468;-3.004;2023-07-02T11:13:14;13.65;;;12.82;;
24389;SDS011;12510;56.468;-3.004;2023-07-02T11:15:45;11.90;;;10.98;;
24389;SDS011;12510;56.468;-3.004;2023-07-02T11:18:13;18.42;;;10.48;;
24389;SDS011;12510;56.468;-3.004;2023-07-02T11:20:41;6.57;;;6.18;;
24389;SDS011;12510;56.468;-3.004;2023-07-02T11:23:23;15.30;;;14.38;;
24389;SDS011;12510;56.468;-3.004;2023-07-02T11:25:57;16.50;;;5.93;;
24389;SDS011;12510;56.468;-3.004;2023-07-02T11:28:24;3.85;;;3.15;;
24389;SDS011;12510;56.468;-3.004;2023-07-02T11:30:52;7.43;;;7.00;;
24389;SDS011;12510;56.468;-3.004;2023-07-02T11:33:20;33.45;;;31.10;;
24389;SDS011;12510;56.468;-3.004;2023-07-02T11:35:58;18.05;;;17.00;;
24389;SDS011;12510;56.468;-3.004;2023-07-02T11:38:24;12.48;;;11.68;;
24389;SDS011;12510;56.468;-3.004;2023-07-02T11:40:51;13.65;;;12.82;;
24389;SDS011;12510;56.468;-3.004;2023-07-02T11:43:17;9.38;;;8.88;;
24389;SDS011;12510;56.468;-3.004;2023-07-02T11:45:44;21.60;;;20.27;;
24389;SDS011;12510;56.468;-3.004;2023-07-02T11:48:10;13.73;;;12.95;;
24389;SDS011;12510;56.468;-3.004;2023-07-02T11:50:37;13.43;;;12.27;;
24389;SDS011;12510;56.468;-3.004;2023-07-02T11:53:03;15.00;;;14.18;;
24389;SDS011;12510;56.468;-3.004;2023-07-02T11:55:30;10.32;;;9.75;;
24389;SDS011;12510;56.468;-3.004;2023-07-02T11:57:56;29.88;;;28.08;;
24389;SDS011;12510;56.468;-3.004;2023-07-02T12:00:23;5.43;;;5.15;;
24389;SDS011;12510;56.468;-3.004;2023-07-02T12:02:49;5.68;;;5.38;;
24389;SDS011;12510;56.468;-3.004;2023-07-02T12:05:16;7.30;;;6.90;;
24389;SDS011;12510;56.468;-3.004;2023-07-02T12:07:42;9.43;;;8.90;;
24389;SDS011;12510;56.468;-3.004;2023-07-02T12:10:09;10.15;;;9.43;;
24389;SDS011;12510;56.468;-3.004;2023-07-02T12:12:35;2.78;;;2.58;;
24389;SDS011;12510;56.468;-3.004;2023-07-02T12:15:02;10.48;;;9.75;;
24389;SDS011;12510;56.468;-3.004;2023-07-02T12:17:28;5.90;;;5.50;;
24389;SDS011;12510;56.468;-3.004;2023-07-02T12:19:56;12.20;;;11.50;;
24389;SDS011;12510;56.468;-3.004;2023-07-02T12:22:22;14.00;;;13.20;;
24389;SDS011;12510;56.468;-3.004;2023-07-02T12:24:49;28.05;;;25.13;;
24389;SDS011;12510;56.468;-3.004;2023-07-02T12:27:16;9.18;;;8.70;;
24389;SDS011;12510;56.468;-3.004;2023-07-02T12:29:42;14.63;;;13.73;;
24389;SDS011;12510;56.468;-3.004;2023-07-02T12:32:09;9.50;;;8.98;;
24389;SDS011;12510;56.468;-3.004;2023-07-02T12:34:35;3.63;;;3.42;;
24389;SDS011;12510;56.468;-3.004;2023-07-02T12:37:02;10.45;;;9.75;;
24389;SDS011;12510;56.468;-3.004;2023-07-02T12:39:29;5.32;;;5.07;;
24389;SDS011;12510;56.468;-3.004;2023-07-02T12:41:56;5.30;;;5.00;;
24389;SDS011;12510;56.468;-3.004;2023-07-02T12:44:22;4.35;;;4.07;;
24389;SDS011;12510;56.468;-3.004;2023-07-02T12:46:49;5.70;;;5.32;;
24389;SDS011;12510;56.468;-3.004;2023-07-02T12:49:16;11.50;;;6.38;;
24389;SDS011;12510;56.468;-3.004;2023-07-02T12:51:42;8.25;;;5.75;;
24389;SDS011;12510;56.468;-3.004;2023-07-02T12:54:09;8.95;;;8.18;;
24389;SDS011;12510;56.468;-3.004;2023-07-02T12:56:35;7.20;;;6.85;;
24389;SDS011;12510;56.468;-3.004;2023-07-02T12:59:02;9.90;;;9.35;;
24389;SDS011;12510;56.468;-3.004;2023-07-02T13:01:29;9.40;;;8.88;;
24389;SDS011;12510;56.468;-3.004;2023-07-02T13:03:55;13.23;;;12.27;;
24389;SDS011;12510;56.468;-3.004;2023-07-02T13:06:22;14.35;;;13.48;;
24389;SDS011;12510;56.468;-3.004;2023-07-02T13:08:48;12.13;;;11.32;;
24389;SDS011;12510;56.468;-3.004;2023-07-02T13:11:15;5.60;;;3.67;;
24389;SDS011;12510;56.468;-3.004;2023-07-02T13:13:41;8.00;;;7.43;;
24389;SDS011;12510;56.468;-3.004;2023-07-02T13:16:07;3.78;;;3.50;;
24389;SDS011;12510;56.468;-3.004;2023-07-02T13:18:34;18.27;;;16.88;;
24389;SDS011;12510;56.468;-3.004;2023-07-02T13:21:00;19.67;;;18.38;;
24389;SDS011;12510;56.468;-3.004;2023-07-02T13:23:27;8.65;;;7.95;;
24389;SDS011;12510;56.468;-3.004;2023-07-02T13:25:53;5.90;;;5.47;;
24389;SDS011;12510;56.468;-3.004;2023-07-02T13:28:20;6.30;;;5.88;;
24389;SDS011;12510;56.468;-3.004;2023-07-02T13:30:47;12.23;;;10.85;;
24389;SDS011;12510;56.468;-3.004;2023-07-02T13:33:13;5.60;;;5.22;;
24389;SDS011;12510;56.468;-3.004;2023-07-02T13:35:40;5.30;;;4.90;;
24389;SDS011;12510;56.468;-3.004;2023-07-02T13:38:07;3.38;;;3.17;;
24389;SDS011;12510;56.468;-3.004;2023-07-02T13:40:33;4.70;;;4.40;;
24389;SDS011;12510;56.468;-3.004;2023-07-02T13:43:00;3.95;;;3.67;;
24389;SDS011;12510;56.468;-3.004;2023-07-02T13:45:26;3.15;;;2.22;;
24389;SDS011;12510;56.468;-3.004;2023-07-02T13:47:52;3.03;;;1.15;;
24389;SDS011;12510;56.468;-3.004;2023-07-02T13:50:19;3.17;;;2.97;;
24389;SDS011;12510;56.468;-3.004;2023-07-02T13:52:45;2.65;;;1.95;;
24389;SDS011;12510;56.468;-3.004;2023-07-02T13:55:12;7.75;;;6.63;;
24389;SDS011;12510;56.468;-3.004;2023-07-02T13:57:38;1.95;;;1.25;;
24389;SDS011;12510;56.468;-3.004;2023-07-02T14:00:05;2.17;;;1.52;;
24389;SDS011;12510;56.468;-3.004;2023-07-02T14:02:32;2.55;;;1.35;;
24389;SDS011;12510;56.468;-3.004;2023-07-02T14:04:58;5.38;;;1.50;;
24389;SDS011;12510;56.468;-3.004;2023-07-02T14:07:25;1.85;;;1.20;;
24389;SDS011;12510;56.468;-3.004;2023-07-02T14:09:51;3.90;;;3.22;;
24389;SDS011;12510;56.468;-3.004;2023-07-02T14:12:18;2.33;;;1.90;;
24389;SDS011;12510;56.468;-3.004;2023-07-02T14:14:44;5.43;;;5.03;;
24389;SDS011;12510;56.468;-3.004;2023-07-02T14:17:12;3.35;;;3.13;;
24389;SDS011;12510;56.468;-3.004;2023-07-02T14:19:39;3.60;;;2.53;;
24389;SDS011;12510;56.468;-3.004;2023-07-02T14:22:05;2.05;;;1.73;;
24389;SDS011;12510;56.468;-3.004;2023-07-02T14:24:33;13.77;;;9.10;;
24389;SDS011;12510;56.468;-3.004;2023-07-02T14:27:00;8.10;;;4.68;;
24389;SDS011;12510;56.468;-3.004;2023-07-02T14:29:26;1.80;;;1.70;;
24389;SDS011;12510;56.468;-3.004;2023-07-02T14:31:53;9.57;;;2.08;;
24389;SDS011;12510;56.468;-3.004;2023-07-02T14:34:19;6.25;;;5.90;;